Observation data for Olton on 12/13/2019      Previous  Date       Current Mesonet Observations  Soil Data  Daily Summary Page  Observations in Plain Language
KONS 130600Z 24006KT M01/M04 A30 RMK A01 T10051039  RH  079%=      5-min Rain = 0
KONS 130605Z 24006KT 00/04 A2999 RMK A01 T00-00-38  RH  076%=      5-min Rain = 0
KONS 130610Z 24005KT M00/M04 A2999 RMK A01 T10041042  RH  077%=      5-min Rain = 0
KONS 130615Z 24005KT M01/M04 A2998 RMK A01 T10071043  RH  077%=      5-min Rain = 0
KONS 130620Z 23005KT M01/M05 A2998 RMK A01 T10071045  RH  076%=      5-min Rain = 0
KONS 130625Z 23005KT M00/M04 A2998 RMK A01 T10041043  RH  076%=      5-min Rain = 0
KONS 130630Z 23005KT M00/M05 A2997 RMK A01 T10021045  RH  073%=      5-min Rain = 0
KONS 130635Z 22005KT 00/M04 A2997 RMK A01 T00011041  RH  074%=      5-min Rain = 0
KONS 130640Z 23004KT 01/M04 A2997 RMK A01 T00061042  RH  071%=      5-min Rain = 0
KONS 130645Z 24005KT M00/M04 A2998 RMK A01 T10011042  RH  074%=      5-min Rain = 0
KONS 130650Z 24006KT M01/M04 A2997 RMK A01 T10051044  RH  076%=      5-min Rain = 0
KONS 130655Z 25006KT M02/M05 A2997 RMK A01 T10151049  RH  079%=      5-min Rain = 0
KONS 130700Z 25006KT M02/M05 A2997 RMK A01 T10181048  RH  081%=      5-min Rain = 0
KONS 130705Z 28005KT M02/M05 A2998 RMK A01 T10201052  RH  080%=      5-min Rain = 0
KONS 130710Z 29005KT M03/M06 A2998 RMK A01 T10271056  RH  082%=      5-min Rain = 0
KONS 130715Z 29005KT M03/M06 A2998 RMK A01 T10261055  RH  081%=      5-min Rain = 0
KONS 130720Z 30006KT M03/M06 A2998 RMK A01 T10291055  RH  083%=      5-min Rain = 0
KONS 130725Z 30006KT M02/M05 A2998 RMK A01 T10221051  RH  082%=      5-min Rain = 0
KONS 130730Z 29006KT M02/M05 A2998 RMK A01 T10181049  RH  080%=      5-min Rain = 0
KONS 130735Z 30006KT M02/M05 A2998 RMK A01 T10151047  RH  080%=      5-min Rain = 0
KONS 130740Z 31005KT M02/M05 A2998 RMK A01 T10151047  RH  080%=      5-min Rain = 0
KONS 130745Z 30006KT M01/M05 A2998 RMK A01 T10121045  RH  079%=      5-min Rain = 0
KONS 130750Z 30007KT M01/M04 A2997 RMK A01 T10071043  RH  077%=      5-min Rain = 0
KONS 130755Z 30006KT M01/M04 A2996 RMK A01 T10061042  RH  077%=      5-min Rain = 0
KONS 130800Z 31005KT M01/M04 A2996 RMK A01 T10061043  RH  077%=      5-min Rain = 0
KONS 130805Z 32005KT M01/M04 A2996 RMK A01 T10051044  RH  076%=      5-min Rain = 0
KONS 130810Z 33005KT M01/M04 A2996 RMK A01 T10061044  RH  076%=      5-min Rain = 0
KONS 130815Z 32005KT M01/M04 A2996 RMK A01 T10071043  RH  077%=      5-min Rain = 0
KONS 130820Z 31006KT M01/M04 A2996 RMK A01 T10061043  RH  077%=      5-min Rain = 0
KONS 130825Z 30006KT M01/M04 A2996 RMK A01 T10071043  RH  077%=      5-min Rain = 0
KONS 130830Z 30007KT M01/M04 A2997 RMK A01 T10081042  RH  079%=      5-min Rain = 0
KONS 130835Z 29007KT M01/M04 A2997 RMK A01 T10121042  RH  081%=      5-min Rain = 0
KONS 130840Z 29008KT M01/M04 A2997 RMK A01 T10141042  RH  082%=      5-min Rain = 0
KONS 130845Z 29008KT M02/M04 A2997 RMK A01 T10151042  RH  083%=      5-min Rain = 0
KONS 130850Z 28008KT M02/M04 A2997 RMK A01 T10171042  RH  084%=      5-min Rain = 0
KONS 130855Z 28008KT M02/M04 A2996 RMK A01 T10201043  RH  085%=      5-min Rain = 0
KONS 130900Z 28008KT M02/M04 A2996 RMK A01 T10221043  RH  086%=      5-min Rain = 0
KONS 130905Z 28008KT M02/M05 A2997 RMK A01 T10241045  RH  086%=      5-min Rain = 0
KONS 130910Z 28008KT M02/M04 A2997 RMK A01 T10211043  RH  086%=      5-min Rain = 0
KONS 130915Z 28009KT M02/M04 A2997 RMK A01 T10181041  RH  085%=      5-min Rain = 0
KONS 130920Z 28010KT M01/M04 A2997 RMK A01 T10101036  RH  084%=      5-min Rain = 0
KONS 130925Z 28009KT M00/M03 A2996 RMK A01 T10021033  RH  080%=      5-min Rain = 0
KONS 130930Z 29009KT 01/M03 A2996 RMK A01 T00051032  RH  077%=      5-min Rain = 0
KONS 130935Z 30009KT 01/M03 A2996 RMK A01 T00081032  RH  075%=      5-min Rain = 0
KONS 130940Z 30009KT 01/M03 A2996 RMK A01 T00091033  RH  074%=      5-min Rain = 0
KONS 130945Z 29010KT 01/M03 A2996 RMK A01 T00101032  RH  074%=      5-min Rain = 0
KONS 130950Z 29009KT 01/M03 A2996 RMK A01 T00121032  RH  073%=      5-min Rain = 0
KONS 130955Z 29010KT 01/M03 A2996 RMK A01 T00131032  RH  073%=      5-min Rain = 0
KONS 131000Z 29010KT 02/M03 A2996 RMK A01 T00151032  RH  072%=      5-min Rain = 0
KONS 131005Z 29009KT 02/M03 A2996 RMK A01 T00171032  RH  070%=      5-min Rain = 0
KONS 131010Z 30009KT 02/M03 A2996 RMK A01 T00171032  RH  070%=      5-min Rain = 0
KONS 131015Z 30011KT 02/M03 A2996 RMK A01 T00191031  RH  070%=      5-min Rain = 0
KONS 131020Z 30010KT 02/M03 A2996 RMK A01 T00181032  RH  071%=      5-min Rain = 0
KONS 131025Z 29010KT 02/M03 A2996 RMK A01 T00151032  RH  072%=      5-min Rain = 0
KONS 131030Z 28010KT 02/M03 A2995 RMK A01 T00151033  RH  071%=      5-min Rain = 0
KONS 131035Z 28010KT 02/M03 A2995 RMK A01 T00171033  RH  070%=      5-min Rain = 0
KONS 131040Z 28010KT 02/M03 A2995 RMK A01 T00171033  RH  070%=      5-min Rain = 0
KONS 131045Z 28009KT 02/M03 A2995 RMK A01 T00191033  RH  069%=      5-min Rain = 0
KONS 131050Z 29007KT 02/M03 A2995 RMK A01 T00201034  RH  068%=      5-min Rain = 0
KONS 131055Z 30008KT 02/M04 A2995 RMK A01 T00191035  RH  068%=      5-min Rain = 0
KONS 131100Z 30008KT 02/M04 A2995 RMK A01 T00161035  RH  070%=      5-min Rain = 0
KONS 131105Z 30008KT 01/M04 A2996 RMK A01 T00141035  RH  071%=      5-min Rain = 0
KONS 131110Z 30007KT 01/M04 A2995 RMK A01 T00101035  RH  072%=      5-min Rain = 0
KONS 131115Z 29007KT 01/M04 A2995 RMK A01 T00061037  RH  074%=      5-min Rain = 0
KONS 131120Z 28009KT 01/M03 A2995 RMK A01 T00121034  RH  072%=      5-min Rain = 0
KONS 131125Z 28011KT 03/M03 A2995 RMK A01 T00271032  RH  066%=      5-min Rain = 0
KONS 131130Z 28011KT 03/M03 A2995 RMK A01 T00251034  RH  066%=      5-min Rain = 0
KONS 131135Z 28012KT 03/M03 A2996 RMK A01 T00281032  RH  065%=      5-min Rain = 0
KONS 131140Z 28011KT 03/M03 A2996 RMK A01 T00331031  RH  063%=      5-min Rain = 0
KONS 131145Z 29010KT 03/M03 A2996 RMK A01 T00321033  RH  063%=      5-min Rain = 0
KONS 131150Z 29011KT 03/M03 A2996 RMK A01 T00321032  RH  064%=      5-min Rain = 0
KONS 131155Z 29011KT 03/M03 A2995 RMK A01 T00311032  RH  064%=      5-min Rain = 0
KONS 131200Z 30010KT 03/M03 A2995 RMK A01 T00281032  RH  066%=      5-min Rain = 0
KONS 131205Z 30009KT 03/M03 A2995 RMK A01 T00251031  RH  067%=      5-min Rain = 0
KONS 131210Z 30009KT 02/M03 A2995 RMK A01 T00211031  RH  069%=      5-min Rain = 0
KONS 131215Z 29009KT 02/M03 A2995 RMK A01 T00191031  RH  071%=      5-min Rain = 0
KONS 131220Z 29008KT 02/M03 A2995 RMK A01 T00181031  RH  071%=      5-min Rain = 0
KONS 131225Z 29008KT 02/M03 A2995 RMK A01 T00181030  RH  071%=      5-min Rain = 0
KONS 131230Z 30008KT 02/M03 A2995 RMK A01 T00181030  RH  071%=      5-min Rain = 0
KONS 131235Z 30007KT 02/M03 A2995 RMK A01 T00171030  RH  072%=      5-min Rain = 0
KONS 131240Z 30008KT 02/M03 A2995 RMK A01 T00161028  RH  073%=      5-min Rain = 0
KONS 131245Z 29008KT 02/M03 A2995 RMK A01 T00171027  RH  073%=      5-min Rain = 0
KONS 131250Z 29008KT 02/M03 A2995 RMK A01 T00181027  RH  073%=      5-min Rain = 0
KONS 131255Z 29008KT 02/M03 A2995 RMK A01 T00201027  RH  072%=      5-min Rain = 0
KONS 131300Z 29009KT 02/M03 A2995 RMK A01 T00221026  RH  071%=      5-min Rain = 0
KONS 131305Z 30009KT 02/M03 A2994 RMK A01 T00241026  RH  070%=      5-min Rain = 0
KONS 131310Z 30009KT 02/M03 A2994 RMK A01 T00241026  RH  070%=      5-min Rain = 0
KONS 131315Z 30009KT 03/M03 A2994 RMK A01 T00251026  RH  070%=      5-min Rain = 0
KONS 131320Z 30010KT 02/M03 A2995 RMK A01 T00241025  RH  071%=      5-min Rain = 0
KONS 131325Z 30010KT 02/M03 A2994 RMK A01 T00241025  RH  071%=      5-min Rain = 0
KONS 131330Z 30011KT 03/M02 A2995 RMK A01 T00271024  RH  070%=      5-min Rain = 0
KONS 131335Z 30012KT 03/M02 A2995 RMK A01 T00311023  RH  069%=      5-min Rain = 0
KONS 131340Z 29012KT 03/M02 A2995 RMK A01 T00331023  RH  067%=      5-min Rain = 0
KONS 131345Z 29012KT 03/M02 A2995 RMK A01 T00341023  RH  067%=      5-min Rain = 0
KONS 131350Z 29011KT 04/M02 A2995 RMK A01 T00351023  RH  066%=      5-min Rain = 0
KONS 131355Z 29012KT 04/M02 A2996 RMK A01 T00391022  RH  065%=      5-min Rain = 0
KONS 131400Z 28013KT 04/M02 A2996 RMK A01 T00441021  RH  063%=      5-min Rain = 0
KONS 131405Z 28013KT 05/M02 A2995 RMK A01 T00471020  RH  062%=      5-min Rain = 0
KONS 131410Z 28013KT 05/M02 A2996 RMK A01 T00501020  RH  062%=      5-min Rain = 0
KONS 131415Z 28013KT 05/M02 A2996 RMK A01 T00531019  RH  060%=      5-min Rain = 0
KONS 131420Z 29013KT 06/M02 A2997 RMK A01 T00551019  RH  060%=      5-min Rain = 0
KONS 131425Z 29013KT 06/M02 A2997 RMK A01 T00581018  RH  059%=      5-min Rain = 0
KONS 131430Z 28012KT 06/M02 A2998 RMK A01 T00601018  RH  058%=      5-min Rain = 0
KONS 131435Z 29014G19KT 06/M02 A2998 RMK A01 T00631018  RH  057%=      5-min Rain = 0
KONS 131440Z 29013KT 07/M02 A2998 RMK A01 T00661017  RH  056%=      5-min Rain = 0
KONS 131445Z 29014KT 07/M02 A2997 RMK A01 T00691017  RH  055%=      5-min Rain = 0
KONS 131450Z 29015G20KT 08/M02 A2997 RMK A01 T00751016  RH  053%=      5-min Rain = 0
KONS 131455Z 29015G20KT 08/M02 A2997 RMK A01 T00801017  RH  051%=      5-min Rain = 0
KONS 131500Z 30013KT 08/M02 A2997 RMK A01 T00781015  RH  052%=      5-min Rain = 0
KONS 131505Z 30013KT 08/M01 A2997 RMK A01 T00771012  RH  054%=      5-min Rain = 0
KONS 131510Z 30013KT 08/M01 A2997 RMK A01 T00811010  RH  053%=      5-min Rain = 0
KONS 131515Z 30015KT 09/M01 A2997 RMK A01 T00861010  RH  052%=      5-min Rain = 0
KONS 131520Z 30015G20KT 09/M01 A2997 RMK A01 T00891010  RH  050%=      5-min Rain = 0
KONS 131525Z 29015KT 09/M01 A2997 RMK A01 T00901010  RH  050%=      5-min Rain = 0
KONS 131530Z 30014KT 09/M01 A2997 RMK A01 T00931009  RH  049%=      5-min Rain = 0
KONS 131535Z 30014KT 10/M01 A2997 RMK A01 T00991007  RH  048%=      5-min Rain = 0
KONS 131540Z 30014KT 10/M01 A2997 RMK A01 T01011008  RH  047%=      5-min Rain = 0
KONS 131545Z 30015G21KT 10/M01 A2997 RMK A01 T01021008  RH  047%=      5-min Rain = 0
KONS 131550Z 30017G22KT 10/M01 A2997 RMK A01 T01031009  RH  046%=      5-min Rain = 0
KONS 131555Z 30015G20KT 11/M01 A2997 RMK A01 T01051008  RH  046%=      5-min Rain = 0
KONS 131600Z 30015KT 11/M01 A2997 RMK A01 T01091006  RH  045%=      5-min Rain = 0
KONS 131605Z 30014KT 11/M01 A2997 RMK A01 T01141005  RH  044%=      5-min Rain = 0
KONS 131610Z 30013G19KT 12/M01 A2996 RMK A01 T01201005  RH  043%=      5-min Rain = 0
KONS 131615Z 29018G25KT 13/M01 A2996 RMK A01 T01291011  RH  038%=      5-min Rain = 0
KONS 131620Z 29018G23KT 13/M01 A2996 RMK A01 T01341012  RH  037%=      5-min Rain = 0
KONS 131625Z 29018G23KT 14/M01 A2996 RMK A01 T01381011  RH  036%=      5-min Rain = 0
KONS 131630Z 29018KT 14/M01 A2996 RMK A01 T01421011  RH  035%=      5-min Rain = 0
KONS 131635Z 29018G25KT 15/M01 A2996 RMK A01 T01461010  RH  035%=      5-min Rain = 0
KONS 131640Z 29018KT 15/M01 A2996 RMK A01 T01491009  RH  034%=      5-min Rain = 0
KONS 131645Z 29022G27KT 15/M01 A2996 RMK A01 T01461009  RH  035%=      5-min Rain = 0
KONS 131650Z 30020G25KT 14/M01 A2996 RMK A01 T01441008  RH  035%=      5-min Rain = 0
KONS 131655Z 29021KT 15/M01 A2996 RMK A01 T01451006  RH  036%=      5-min Rain = 0
KONS 131700Z 29021G26KT 15/M01 A2996 RMK A01 T01461007  RH  035%=      5-min Rain = 0
KONS 131705Z 29022G28KT 15/M01 A2996 RMK A01 T01471006  RH  035%=      5-min Rain = 0
KONS 131710Z 29020G25KT 15/M00 A2996 RMK A01 T01491004  RH  035%=      5-min Rain = 0
KONS 131715Z 30019G24KT 15/M00 A2996 RMK A01 T01521001  RH  035%=      5-min Rain = 0
KONS 131720Z 30019G26KT 16/M00 A2996 RMK A01 T01551001  RH  035%=      5-min Rain = 0
KONS 131725Z 30021G27KT 15/M00 A2995 RMK A01 T01511003  RH  035%=      5-min Rain = 0
KONS 131730Z 30022KT 15/M00 A2996 RMK A01 T01531003  RH  035%=      5-min Rain = 0
KONS 131735Z 29022G27KT 16/M00 A2995 RMK A01 T01551002  RH  035%=      5-min Rain = 0
KONS 131740Z 30019G27KT 16/00 A2995 RMK A01 T015800-0  RH  034%=      5-min Rain = 0
KONS 131745Z 29018G24KT 16/M00 A2994 RMK A01 T01631001  RH  033%=      5-min Rain = 0
KONS 131750Z 29019G25KT 17/M00 A2994 RMK A01 T01651002  RH  033%=      5-min Rain = 0
KONS 131755Z 30018G24KT 17/00 A2995 RMK A01 T016700-0  RH  032%=      5-min Rain = 0
KONS 131800Z 29020G25KT 17/M00 A2994 RMK A01 T01681001  RH  032%=      5-min Rain = 0
KONS 131805Z 30020G26KT 17/M00 A2994 RMK A01 T01671002  RH  032%=      5-min Rain = 0
KONS 131810Z 29021KT 17/M00 A2994 RMK A01 T01681002  RH  032%=      5-min Rain = 0
KONS 131815Z 29021G28KT 17/M00 A2993 RMK A01 T01691003  RH  031%=      5-min Rain = 0
KONS 131820Z 29021G26KT 17/M00 A2993 RMK A01 T01691002  RH  032%=      5-min Rain = 0
KONS 131825Z 29021G26KT 17/M00 A2993 RMK A01 T01711003  RH  031%=      5-min Rain = 0
KONS 131830Z 30022KT 17/M00 A2993 RMK A01 T01731003  RH  031%=      5-min Rain = 0
KONS 131835Z 30021G27KT 17/M00 A2992 RMK A01 T01741003  RH  031%=      5-min Rain = 0
KONS 131840Z 30020G27KT 18/M01 A2992 RMK A01 T01751005  RH  030%=      5-min Rain = 0
KONS 131845Z 29022G29KT 18/M01 A2992 RMK A01 T01761006  RH  030%=      5-min Rain = 0
KONS 131850Z 30019G28KT 18/M01 A2992 RMK A01 T01781006  RH  029%=      5-min Rain = 0
KONS 131855Z 30021G28KT 18/M01 A2991 RMK A01 T01811006  RH  029%=      5-min Rain = 0
KONS 131900Z 30021G26KT 18/M01 A2991 RMK A01 T01831006  RH  028%=      5-min Rain = 0
KONS 131905Z 30022G29KT 18/M01 A2991 RMK A01 T01831006  RH  028%=      5-min Rain = 0
KONS 131910Z 29021G27KT 18/M00 A2991 RMK A01 T01831004  RH  029%=      5-min Rain = 0
KONS 131915Z 29022G28KT 18/M01 A2991 RMK A01 T01841005  RH  028%=      5-min Rain = 0
KONS 131920Z 29021G28KT 18/M01 A2991 RMK A01 T01831006  RH  028%=      5-min Rain = 0
KONS 131925Z 28019G27KT 18/M01 A2991 RMK A01 T01821006  RH  028%=      5-min Rain = 0
KONS 131930Z 29021G27KT 19/M01 A299 RMK A01 T01861005  RH  028%=      5-min Rain = 0
KONS 131935Z 30023G30KT 19/M01 A2989 RMK A01 T01881011  RH  026%=      5-min Rain = 0
KONS 131940Z 29023G30KT 19/M02 A2989 RMK A01 T01891015  RH  025%=      5-min Rain = 0
KONS 131945Z 29024G31KT 19/M02 A2989 RMK A01 T01891017  RH  025%=      5-min Rain = 0
KONS 131950Z 29022G29KT 19/M02 A2989 RMK A01 T01911018  RH  025%=      5-min Rain = 0
KONS 131955Z 30022G30KT 19/M02 A2988 RMK A01 T01891019  RH  025%=      5-min Rain = 0
KONS 132000Z 29020G27KT 19/M02 A2987 RMK A01 T01901019  RH  025%=      5-min Rain = 0
KONS 132005Z 29023G29KT 19/M02 A2987 RMK A01 T01901020  RH  024%=      5-min Rain = 0
KONS 132010Z 31018G27KT 19/M02 A2988 RMK A01 T01901019  RH  024%=      5-min Rain = 0
KONS 132015Z 30022G33KT 19/M02 A2987 RMK A01 T01941019  RH  024%=      5-min Rain = 0
KONS 132020Z 31022G30KT 19/M02 A2987 RMK A01 T01911021  RH  024%=      5-min Rain = 0
KONS 132025Z 29022G29KT 19/M02 A2987 RMK A01 T01901019  RH  024%=      5-min Rain = 0
KONS 132030Z 30022G28KT 19/M02 A2987 RMK A01 T01901021  RH  024%=      5-min Rain = 0
KONS 132035Z 29020G27KT 19/M02 A2988 RMK A01 T01921020  RH  024%=      5-min Rain = 0
KONS 132040Z 29019G27KT 19/M02 A2988 RMK A01 T01931021  RH  024%=      5-min Rain = 0
KONS 132045Z 29021G28KT 19/M02 A2988 RMK A01 T01931022  RH  024%=      5-min Rain = 0
KONS 132050Z 29022G28KT 19/M02 A2988 RMK A01 T01931024  RH  023%=      5-min Rain = 0
KONS 132055Z 30022G27KT 19/M02 A2988 RMK A01 T01911024  RH  023%=      5-min Rain = 0
KONS 132100Z 30021G28KT 19/M02 A2988 RMK A01 T01931024  RH  023%=      5-min Rain = 0
KONS 132105Z 30020G27KT 19/M02 A2988 RMK A01 T01921023  RH  023%=      5-min Rain = 0
KONS 132110Z 30020G27KT 19/M02 A2988 RMK A01 T01911023  RH  024%=      5-min Rain = 0
KONS 132115Z 29021G26KT 19/M02 A2988 RMK A01 T01911022  RH  024%=      5-min Rain = 0
KONS 132120Z 30020G26KT 19/M03 A2988 RMK A01 T01921027  RH  023%=      5-min Rain = 0
KONS 132125Z 29017G23KT 19/M03 A2988 RMK A01 T01911025  RH  023%=      5-min Rain = 0
KONS 132130Z 30017G24KT 19/M03 A2988 RMK A01 T01921025  RH  023%=      5-min Rain = 0
KONS 132135Z 30015KT 19/M02 A2988 RMK A01 T01941023  RH  023%=      5-min Rain = 0
KONS 132140Z 31015G20KT 19/M02 A2988 RMK A01 T01931023  RH  023%=      5-min Rain = 0
KONS 132145Z 30016G21KT 19/M02 A2988 RMK A01 T01921022  RH  024%=      5-min Rain = 0
KONS 132150Z 29016G21KT 19/M03 A2988 RMK A01 T01911025  RH  023%=      5-min Rain = 0
KONS 132155Z 30016KT 19/M03 A2988 RMK A01 T01901025  RH  023%=      5-min Rain = 0
KONS 132200Z 29016G21KT 19/M02 A2988 RMK A01 T01901024  RH  024%=      5-min Rain = 0
KONS 132205Z 29017KT 19/M02 A2988 RMK A01 T01891024  RH  024%=      5-min Rain = 0
KONS 132210Z 29012G19KT 19/M02 A2988 RMK A01 T01901023  RH  024%=      5-min Rain = 0
KONS 132215Z 30016KT 19/M03 A2989 RMK A01 T01891025  RH  024%=      5-min Rain = 0
KONS 132220Z 30014G19KT 19/M02 A2989 RMK A01 T01881024  RH  024%=      5-min Rain = 0
KONS 132225Z 30011KT 19/M02 A2989 RMK A01 T01881022  RH  024%=      5-min Rain = 0
KONS 132230Z 31011KT 19/M02 A2989 RMK A01 T01861022  RH  025%=      5-min Rain = 0
KONS 132235Z 30012KT 19/M02 A2989 RMK A01 T01861023  RH  024%=      5-min Rain = 0
KONS 132240Z 30012KT 18/M02 A2989 RMK A01 T01841023  RH  025%=      5-min Rain = 0
KONS 132245Z 30010KT 18/M02 A2989 RMK A01 T01821021  RH  025%=      5-min Rain = 0
KONS 132250Z 29011KT 18/M02 A2989 RMK A01 T01811021  RH  026%=      5-min Rain = 0
KONS 132255Z 30008KT 18/M02 A2988 RMK A01 T01791019  RH  026%=      5-min Rain = 0
KONS 132300Z 30007KT 18/M02 A2988 RMK A01 T01761018  RH  027%=      5-min Rain = 0
KONS 132305Z 29006KT 17/M02 A2988 RMK A01 T01731018  RH  028%=      5-min Rain = 0
KONS 132310Z 29006KT 17/M02 A2987 RMK A01 T01681017  RH  028%=      5-min Rain = 0
KONS 132315Z 29007KT 16/M02 A2988 RMK A01 T01621016  RH  030%=      5-min Rain = 0
KONS 132320Z 28008KT 16/M01 A2988 RMK A01 T01551013  RH  032%=      5-min Rain = 0
KONS 132325Z 28008KT 15/M01 A2988 RMK A01 T01471012  RH  034%=      5-min Rain = 0
KONS 132330Z 28009KT 14/M01 A2989 RMK A01 T01411014  RH  035%=      5-min Rain = 0
KONS 132335Z 28008KT 14/M01 A2988 RMK A01 T01371014  RH  036%=      5-min Rain = 0
KONS 132340Z 27008KT 14/M02 A2989 RMK A01 T01371016  RH  035%=      5-min Rain = 0
KONS 132345Z 27009KT 14/M02 A2989 RMK A01 T01361016  RH  035%=      5-min Rain = 0
KONS 132350Z 27009KT 14/M02 A2989 RMK A01 T01361016  RH  035%=      5-min Rain = 0
KONS 132355Z 27009KT 14/M02 A2989 RMK A01 T01361016  RH  035%=      5-min Rain = 0
KONS 140000Z 27009KT 13/M02 A2989 RMK A01 T01341015  RH  036%=      5-min Rain = 0
KONS 140005Z 27009KT 13/M02 A2989 RMK A01 T01291016  RH  037%=      5-min Rain = 0
KONS 140010Z 27009KT 12/M02 A2989 RMK A01 T01241016  RH  038%=      5-min Rain = 0
KONS 140015Z 27009KT 11/M02 A299 RMK A01 T01141016  RH  041%=      5-min Rain = 0
KONS 140020Z 28010KT 11/M02 A299 RMK A01 T01091015  RH  042%=      5-min Rain = 0
KONS 140025Z 28010KT 11/M02 A299 RMK A01 T01081017  RH  042%=      5-min Rain = 0
KONS 140030Z 28009KT 10/M02 A299 RMK A01 T01021019  RH  043%=      5-min Rain = 0
KONS 140035Z 28009KT 10/M02 A299 RMK A01 T00971020  RH  045%=      5-min Rain = 0
KONS 140040Z 28009KT 10/M02 A299 RMK A01 T00961020  RH  045%=      5-min Rain = 0
KONS 140045Z 27010KT 10/M02 A299 RMK A01 T00961022  RH  044%=      5-min Rain = 0
KONS 140050Z 26011KT 10/M02 A299 RMK A01 T01041023  RH  041%=      5-min Rain = 0
KONS 140055Z 27012KT 11/M03 A2991 RMK A01 T01101029  RH  038%=      5-min Rain = 0
KONS 140100Z 28012KT 11/M03 A2991 RMK A01 T01091032  RH  037%=      5-min Rain = 0
KONS 140105Z 27011KT 10/M03 A2992 RMK A01 T00991032  RH  040%=      5-min Rain = 0
KONS 140110Z 27010KT 09/M03 A2992 RMK A01 T00931029  RH  043%=      5-min Rain = 0
KONS 140115Z 27011KT 09/M03 A2992 RMK A01 T00911029  RH  043%=      5-min Rain = 0
KONS 140120Z 28012KT 09/M03 A2992 RMK A01 T00891030  RH  044%=      5-min Rain = 0
KONS 140125Z 29011KT 09/M03 A2993 RMK A01 T00911034  RH  042%=      5-min Rain = 0
KONS 140130Z 29010KT 09/M04 A2993 RMK A01 T00941038  RH  040%=      5-min Rain = 0
KONS 140135Z 29009KT 09/M04 A2994 RMK A01 T00911040  RH  040%=      5-min Rain = 0
KONS 140140Z 29010KT 08/M04 A2994 RMK A01 T00801041  RH  043%=      5-min Rain = 0
KONS 140145Z 28009KT 08/M04 A2994 RMK A01 T00751040  RH  045%=      5-min Rain = 0
KONS 140150Z 28010KT 07/M04 A2993 RMK A01 T00721039  RH  046%=      5-min Rain = 0
KONS 140155Z 29010KT 08/M04 A2993 RMK A01 T00761041  RH  044%=      5-min Rain = 0
KONS 140200Z 29010KT 08/M04 A2994 RMK A01 T00771044  RH  042%=      5-min Rain = 0
KONS 140205Z 29010KT 07/M05 A2994 RMK A01 T00721045  RH  044%=      5-min Rain = 0
KONS 140210Z 29010KT 07/M05 A2994 RMK A01 T00701045  RH  044%=      5-min Rain = 0
KONS 140215Z 29010KT 07/M05 A2994 RMK A01 T00731045  RH  043%=      5-min Rain = 0
KONS 140220Z 29010KT 08/M04 A2994 RMK A01 T00751043  RH  043%=      5-min Rain = 0
KONS 140225Z 29010KT 08/M04 A2994 RMK A01 T00761041  RH  044%=      5-min Rain = 0
KONS 140230Z 29009KT 08/M04 A2993 RMK A01 T00751039  RH  045%=      5-min Rain = 0
KONS 140235Z 29009KT 07/M04 A2993 RMK A01 T00741037  RH  046%=      5-min Rain = 0
KONS 140240Z 29009KT 07/M04 A2994 RMK A01 T00731037  RH  046%=      5-min Rain = 0
KONS 140245Z 29008KT 07/M04 A2994 RMK A01 T00721038  RH  046%=      5-min Rain = 0
KONS 140250Z 29008KT 07/M04 A2994 RMK A01 T00711038  RH  046%=      5-min Rain = 0
KONS 140255Z 29009KT 07/M04 A2993 RMK A01 T00711036  RH  047%=      5-min Rain = 0
KONS 140300Z 30010KT 07/M04 A2994 RMK A01 T00741036  RH  046%=      5-min Rain = 0
KONS 140305Z 29010KT 07/M04 A2994 RMK A01 T00721036  RH  047%=      5-min Rain = 0
KONS 140310Z 29011KT 07/M04 A2994 RMK A01 T00721037  RH  046%=      5-min Rain = 0
KONS 140315Z 29010KT 07/M04 A2994 RMK A01 T00701037  RH  047%=      5-min Rain = 0
KONS 140320Z 30010KT 07/M04 A2994 RMK A01 T00681038  RH  047%=      5-min Rain = 0
KONS 140325Z 30011KT 06/M04 A2995 RMK A01 T00641036  RH  049%=      5-min Rain = 0
KONS 140330Z 30011KT 06/M04 A2995 RMK A01 T00641035  RH  050%=      5-min Rain = 0
KONS 140335Z 30011KT 06/M03 A2995 RMK A01 T00641032  RH  051%=      5-min Rain = 0
KONS 140340Z 30011KT 06/M03 A2995 RMK A01 T00631032  RH  051%=      5-min Rain = 0
KONS 140345Z 31010KT 06/M03 A2995 RMK A01 T00601033  RH  052%=      5-min Rain = 0
KONS 140350Z 33010KT 06/M03 A2995 RMK A01 T00591034  RH  052%=      5-min Rain = 0
KONS 140355Z 35010KT 05/M04 A2995 RMK A01 T00531037  RH  053%=      5-min Rain = 0
KONS 140400Z 35009KT 05/M04 A2995 RMK A01 T00521041  RH  051%=      5-min Rain = 0
KONS 140405Z 34008KT 05/M05 A2995 RMK A01 T00511045  RH  051%=      5-min Rain = 0
KONS 140410Z 35007KT 05/M05 A2995 RMK A01 T00481046  RH  051%=      5-min Rain = 0
KONS 140415Z 35006KT 05/M05 A2994 RMK A01 T00451046  RH  052%=      5-min Rain = 0
KONS 140420Z 35008KT 04/M05 A2993 RMK A01 T00441047  RH  052%=      5-min Rain = 0
KONS 140425Z 34008KT 04/M05 A2993 RMK A01 T00381048  RH  054%=      5-min Rain = 0
KONS 140430Z 34007KT 04/M05 A2993 RMK A01 T00361049  RH  054%=      5-min Rain = 0
KONS 140435Z 33007KT 04/M05 A2993 RMK A01 T00391047  RH  054%=      5-min Rain = 0
KONS 140440Z 32008KT 04/M05 A2994 RMK A01 T00381049  RH  054%=      5-min Rain = 0
KONS 140445Z 31008KT 04/M05 A2994 RMK A01 T00391048  RH  054%=      5-min Rain = 0
KONS 140450Z 31008KT 04/M05 A2994 RMK A01 T00371048  RH  054%=      5-min Rain = 0
KONS 140455Z 31008KT 03/M05 A2993 RMK A01 T00301049  RH  057%=      5-min Rain = 0
KONS 140500Z 30008KT 03/M05 A2993 RMK A01 T00271048  RH  059%=      5-min Rain = 0
KONS 140505Z 29009KT 03/M05 A2993 RMK A01 T00271047  RH  059%=      5-min Rain = 0
KONS 140510Z 28009KT 03/M05 A2994 RMK A01 T00281046  RH  059%=      5-min Rain = 0
KONS 140515Z 26008KT 02/M05 A2994 RMK A01 T00241047  RH  060%=      5-min Rain = 0
KONS 140520Z 29009KT 02/M05 A2994 RMK A01 T00241047  RH  061%=      5-min Rain = 0
KONS 140525Z 28008KT 02/M05 A2994 RMK A01 T00221047  RH  061%=      5-min Rain = 0
KONS 140530Z 27006KT 02/M05 A2995 RMK A01 T00191048  RH  062%=      5-min Rain = 0
KONS 140535Z 28003KT 01/M05 A2995 RMK A01 T00091052  RH  065%=      5-min Rain = 0
KONS 140540Z 33004KT 01/M05 A2995 RMK A01 T00081049  RH  066%=      5-min Rain = 0
KONS 140545Z 02007KT 01/M05 A2995 RMK A01 T00141048  RH  064%=      5-min Rain = 0
KONS 140550Z 04004KT 01/M05 A2995 RMK A01 T00091047  RH  067%=      5-min Rain = 0
KONS 140555Z 35003KT 01/M05 A2995 RMK A01 T00131046  RH  066%=      5-min Rain = 0

Page generated in 0.0117 seconds.